sensor_id;sensor_type;location;lat;lon;timestamp;P1;durP1;ratioP1;P2;durP2;ratioP2
7683;SDS011;3884;48.616;12.872;2022-09-12T00:01:11;8.53;;;7.83;;
7683;SDS011;3884;48.616;12.872;2022-09-12T00:03:39;9.13;;;8.33;;
7683;SDS011;3884;48.616;12.872;2022-09-12T00:06:07;9.33;;;8.20;;
7683;SDS011;3884;48.616;12.872;2022-09-12T00:08:37;8.23;;;7.50;;
7683;SDS011;3884;48.616;12.872;2022-09-12T00:11:05;8.80;;;8.00;;
7683;SDS011;3884;48.616;12.872;2022-09-12T00:13:33;9.03;;;7.97;;
7683;SDS011;3884;48.616;12.872;2022-09-12T00:16:00;8.37;;;7.57;;
7683;SDS011;3884;48.616;12.872;2022-09-12T00:18:27;8.00;;;7.20;;
7683;SDS011;3884;48.616;12.872;2022-09-12T00:20:54;10.60;;;8.27;;
7683;SDS011;3884;48.616;12.872;2022-09-12T00:23:21;9.67;;;8.57;;
7683;SDS011;3884;48.616;12.872;2022-09-12T00:25:49;9.37;;;8.10;;
7683;SDS011;3884;48.616;12.872;2022-09-12T00:28:16;9.20;;;8.40;;
7683;SDS011;3884;48.616;12.872;2022-09-12T00:30:44;8.80;;;7.93;;
7683;SDS011;3884;48.616;12.872;2022-09-12T00:33:13;9.70;;;8.80;;
7683;SDS011;3884;48.616;12.872;2022-09-12T00:35:41;9.80;;;8.90;;
7683;SDS011;3884;48.616;12.872;2022-09-12T00:38:09;9.17;;;8.27;;
7683;SDS011;3884;48.616;12.872;2022-09-12T00:40:36;9.57;;;8.67;;
7683;SDS011;3884;48.616;12.872;2022-09-12T00:43:04;9.77;;;8.77;;
7683;SDS011;3884;48.616;12.872;2022-09-12T00:45:35;9.97;;;9.00;;
7683;SDS011;3884;48.616;12.872;2022-09-12T00:48:02;9.80;;;8.80;;
7683;SDS011;3884;48.616;12.872;2022-09-12T00:50:30;10.90;;;9.80;;
7683;SDS011;3884;48.616;12.872;2022-09-12T00:52:59;10.10;;;9.13;;
7683;SDS011;3884;48.616;12.872;2022-09-12T00:55:30;10.43;;;9.40;;
7683;SDS011;3884;48.616;12.872;2022-09-12T00:58:02;9.57;;;8.67;;
7683;SDS011;3884;48.616;12.872;2022-09-12T01:00:34;10.53;;;8.47;;
7683;SDS011;3884;48.616;12.872;2022-09-12T01:03:03;8.03;;;7.33;;
7683;SDS011;3884;48.616;12.872;2022-09-12T01:05:32;11.37;;;7.87;;
7683;SDS011;3884;48.616;12.872;2022-09-12T01:08:02;8.30;;;7.60;;
7683;SDS011;3884;48.616;12.872;2022-09-12T01:10:30;8.57;;;7.10;;
7683;SDS011;3884;48.616;12.872;2022-09-12T01:12:59;8.93;;;8.03;;
7683;SDS011;3884;48.616;12.872;2022-09-12T01:15:28;8.17;;;7.47;;
7683;SDS011;3884;48.616;12.872;2022-09-12T01:17:59;10.17;;;8.77;;
7683;SDS011;3884;48.616;12.872;2022-09-12T01:26:56;8.47;;;6.93;;
7683;SDS011;3884;48.616;12.872;2022-09-12T01:29:49;7.87;;;6.53;;
7683;SDS011;3884;48.616;12.872;2022-09-12T01:32:31;7.17;;;6.57;;
7683;SDS011;3884;48.616;12.872;2022-09-12T01:35:08;10.47;;;8.30;;
7683;SDS011;3884;48.616;12.872;2022-09-12T01:37:46;8.20;;;7.50;;
7683;SDS011;3884;48.616;12.872;2022-09-12T01:40:28;8.43;;;7.40;;
7683;SDS011;3884;48.616;12.872;2022-09-12T01:43:01;10.97;;;7.20;;
7683;SDS011;3884;48.616;12.872;2022-09-12T01:45:37;11.07;;;7.70;;
7683;SDS011;3884;48.616;12.872;2022-09-12T01:48:09;8.97;;;8.17;;
7683;SDS011;3884;48.616;12.872;2022-09-12T01:50:42;9.57;;;7.77;;
7683;SDS011;3884;48.616;12.872;2022-09-12T01:53:12;8.57;;;7.87;;
7683;SDS011;3884;48.616;12.872;2022-09-12T01:55:43;8.77;;;7.87;;
7683;SDS011;3884;48.616;12.872;2022-09-12T01:58:14;8.93;;;8.13;;
7683;SDS011;3884;48.616;12.872;2022-09-12T02:00:46;10.07;;;8.73;;
7683;SDS011;3884;48.616;12.872;2022-09-12T02:03:21;9.27;;;8.37;;
7683;SDS011;3884;48.616;12.872;2022-09-12T02:05:53;10.87;;;8.83;;
7683;SDS011;3884;48.616;12.872;2022-09-12T02:08:26;10.30;;;8.90;;
7683;SDS011;3884;48.616;12.872;2022-09-12T02:10:57;8.80;;;8.00;;
7683;SDS011;3884;48.616;12.872;2022-09-12T02:13:28;8.37;;;7.67;;
7683;SDS011;3884;48.616;12.872;2022-09-12T02:16:02;9.23;;;8.33;;
7683;SDS011;3884;48.616;12.872;2022-09-12T02:18:35;7.90;;;7.10;;
7683;SDS011;3884;48.616;12.872;2022-09-12T02:21:05;9.13;;;8.30;;
7683;SDS011;3884;48.616;12.872;2022-09-12T02:23:33;7.80;;;7.10;;
7683;SDS011;3884;48.616;12.872;2022-09-12T02:26:05;8.43;;;7.13;;
7683;SDS011;3884;48.616;12.872;2022-09-12T02:28:38;8.70;;;7.90;;
7683;SDS011;3884;48.616;12.872;2022-09-12T02:31:09;8.17;;;7.43;;
7683;SDS011;3884;48.616;12.872;2022-09-12T02:33:45;7.90;;;6.67;;
7683;SDS011;3884;48.616;12.872;2022-09-12T02:36:19;7.07;;;6.37;;
7683;SDS011;3884;48.616;12.872;2022-09-12T02:38:57;7.17;;;6.43;;
7683;SDS011;3884;48.616;12.872;2022-09-12T02:41:24;6.60;;;6.00;;
7683;SDS011;3884;48.616;12.872;2022-09-12T02:43:51;7.17;;;6.47;;
7683;SDS011;3884;48.616;12.872;2022-09-12T02:46:21;9.40;;;6.60;;
7683;SDS011;3884;48.616;12.872;2022-09-12T02:48:51;9.50;;;7.27;;
7683;SDS011;3884;48.616;12.872;2022-09-12T02:51:19;8.63;;;7.53;;
7683;SDS011;3884;48.616;12.872;2022-09-12T02:53:47;7.47;;;6.67;;
7683;SDS011;3884;48.616;12.872;2022-09-12T02:56:16;7.20;;;6.50;;
7683;SDS011;3884;48.616;12.872;2022-09-12T02:58:46;8.20;;;7.30;;
7683;SDS011;3884;48.616;12.872;2022-09-12T03:01:16;9.27;;;7.23;;
7683;SDS011;3884;48.616;12.872;2022-09-12T03:04:03;8.37;;;6.40;;
7683;SDS011;3884;48.616;12.872;2022-09-12T03:06:48;6.70;;;6.10;;
7683;SDS011;3884;48.616;12.872;2022-09-12T03:09:25;6.70;;;6.10;;
7683;SDS011;3884;48.616;12.872;2022-09-12T03:12:02;7.23;;;6.50;;
7683;SDS011;3884;48.616;12.872;2022-09-12T03:14:42;10.33;;;7.60;;
7683;SDS011;3884;48.616;12.872;2022-09-12T03:17:27;11.83;;;7.00;;
7683;SDS011;3884;48.616;12.872;2022-09-12T03:20:04;17.17;;;8.13;;
7683;SDS011;3884;48.616;12.872;2022-09-12T03:22:38;11.63;;;8.17;;
7683;SDS011;3884;48.616;12.872;2022-09-12T03:25:13;20.70;;;7.90;;
7683;SDS011;3884;48.616;12.872;2022-09-12T03:27:43;13.10;;;8.03;;
7683;SDS011;3884;48.616;12.872;2022-09-12T03:30:13;15.83;;;9.00;;
7683;SDS011;3884;48.616;12.872;2022-09-12T03:32:44;10.73;;;8.13;;
7683;SDS011;3884;48.616;12.872;2022-09-12T03:35:14;13.83;;;8.63;;
7683;SDS011;3884;48.616;12.872;2022-09-12T03:37:42;20.20;;;9.23;;
7683;SDS011;3884;48.616;12.872;2022-09-12T03:40:10;18.87;;;8.43;;
7683;SDS011;3884;48.616;12.872;2022-09-12T03:42:37;21.80;;;8.83;;
7683;SDS011;3884;48.616;12.872;2022-09-12T03:45:04;22.27;;;8.30;;
7683;SDS011;3884;48.616;12.872;2022-09-12T03:47:32;19.80;;;8.20;;
7683;SDS011;3884;48.616;12.872;2022-09-12T03:49:59;19.47;;;8.33;;
7683;SDS011;3884;48.616;12.872;2022-09-12T03:52:27;13.13;;;8.20;;
7683;SDS011;3884;48.616;12.872;2022-09-12T03:54:54;20.27;;;7.50;;
7683;SDS011;3884;48.616;12.872;2022-09-12T03:57:21;13.73;;;7.33;;
7683;SDS011;3884;48.616;12.872;2022-09-12T03:59:50;18.77;;;7.70;;
7683;SDS011;3884;48.616;12.872;2022-09-12T04:02:17;15.13;;;7.37;;
7683;SDS011;3884;48.616;12.872;2022-09-12T04:04:44;22.80;;;7.47;;
7683;SDS011;3884;48.616;12.872;2022-09-12T04:07:13;16.00;;;7.23;;
7683;SDS011;3884;48.616;12.872;2022-09-12T04:09:41;8.40;;;7.57;;
7683;SDS011;3884;48.616;12.872;2022-09-12T04:12:08;11.83;;;8.23;;
7683;SDS011;3884;48.616;12.872;2022-09-12T04:14:34;11.47;;;8.53;;
7683;SDS011;3884;48.616;12.872;2022-09-12T04:17:01;10.17;;;7.70;;
7683;SDS011;3884;48.616;12.872;2022-09-12T04:19:28;9.07;;;7.80;;
7683;SDS011;3884;48.616;12.872;2022-09-12T04:21:55;9.90;;;8.47;;
7683;SDS011;3884;48.616;12.872;2022-09-12T04:24:22;8.97;;;8.17;;
7683;SDS011;3884;48.616;12.872;2022-09-12T04:26:50;10.00;;;9.10;;
7683;SDS011;3884;48.616;12.872;2022-09-12T04:29:17;9.43;;;8.53;;
7683;SDS011;3884;48.616;12.872;2022-09-12T04:31:44;8.67;;;7.80;;
7683;SDS011;3884;48.616;12.872;2022-09-12T04:34:11;9.83;;;7.70;;
7683;SDS011;3884;48.616;12.872;2022-09-12T04:36:39;9.30;;;8.43;;
7683;SDS011;3884;48.616;12.872;2022-09-12T04:39:06;8.47;;;7.73;;
7683;SDS011;3884;48.616;12.872;2022-09-12T04:41:34;10.07;;;8.33;;
7683;SDS011;3884;48.616;12.872;2022-09-12T04:44:05;7.67;;;6.97;;
7683;SDS011;3884;48.616;12.872;2022-09-12T04:46:34;8.70;;;7.77;;
7683;SDS011;3884;48.616;12.872;2022-09-12T04:49:03;9.07;;;8.17;;
7683;SDS011;3884;48.616;12.872;2022-09-12T04:51:31;8.40;;;7.60;;
7683;SDS011;3884;48.616;12.872;2022-09-12T04:54:00;23.73;;;8.67;;
7683;SDS011;3884;48.616;12.872;2022-09-12T04:56:28;13.97;;;8.27;;
7683;SDS011;3884;48.616;12.872;2022-09-12T04:58:56;7.80;;;7.00;;
7683;SDS011;3884;48.616;12.872;2022-09-12T05:01:26;7.77;;;7.07;;
7683;SDS011;3884;48.616;12.872;2022-09-12T05:03:54;7.50;;;6.90;;
7683;SDS011;3884;48.616;12.872;2022-09-12T05:06:22;8.87;;;8.07;;
7683;SDS011;3884;48.616;12.872;2022-09-12T05:08:51;10.33;;;8.37;;
7683;SDS011;3884;48.616;12.872;2022-09-12T05:11:20;10.03;;;8.07;;
7683;SDS011;3884;48.616;12.872;2022-09-12T05:13:48;24.43;;;8.80;;
7683;SDS011;3884;48.616;12.872;2022-09-12T05:16:16;9.63;;;8.73;;
7683;SDS011;3884;48.616;12.872;2022-09-12T05:18:45;8.70;;;7.80;;
7683;SDS011;3884;48.616;12.872;2022-09-12T05:21:14;10.30;;;8.47;;
7683;SDS011;3884;48.616;12.872;2022-09-12T05:23:42;9.97;;;8.67;;
7683;SDS011;3884;48.616;12.872;2022-09-12T05:26:11;8.93;;;8.10;;
7683;SDS011;3884;48.616;12.872;2022-09-12T05:28:39;10.03;;;8.93;;
7683;SDS011;3884;48.616;12.872;2022-09-12T05:31:07;12.13;;;9.20;;
7683;SDS011;3884;48.616;12.872;2022-09-12T05:33:37;9.80;;;8.80;;
7683;SDS011;3884;48.616;12.872;2022-09-12T05:36:08;8.07;;;7.37;;
7683;SDS011;3884;48.616;12.872;2022-09-12T05:38:37;9.50;;;8.50;;
7683;SDS011;3884;48.616;12.872;2022-09-12T05:41:04;9.57;;;8.60;;
7683;SDS011;3884;48.616;12.872;2022-09-12T05:43:34;10.30;;;9.27;;
7683;SDS011;3884;48.616;12.872;2022-09-12T05:46:02;9.63;;;8.63;;
7683;SDS011;3884;48.616;12.872;2022-09-12T05:48:32;9.90;;;8.90;;
7683;SDS011;3884;48.616;12.872;2022-09-12T05:50:59;8.93;;;8.03;;
7683;SDS011;3884;48.616;12.872;2022-09-12T05:53:28;8.47;;;7.67;;
7683;SDS011;3884;48.616;12.872;2022-09-12T05:56:03;8.13;;;7.33;;
7683;SDS011;3884;48.616;12.872;2022-09-12T05:58:31;9.17;;;8.27;;
7683;SDS011;3884;48.616;12.872;2022-09-12T06:01:02;11.07;;;8.57;;
7683;SDS011;3884;48.616;12.872;2022-09-12T06:03:32;11.87;;;8.87;;
7683;SDS011;3884;48.616;12.872;2022-09-12T06:06:00;13.50;;;9.43;;
7683;SDS011;3884;48.616;12.872;2022-09-12T06:08:31;11.20;;;9.03;;
7683;SDS011;3884;48.616;12.872;2022-09-12T06:11:00;14.07;;;9.87;;
7683;SDS011;3884;48.616;12.872;2022-09-12T06:13:29;19.43;;;9.93;;
7683;SDS011;3884;48.616;12.872;2022-09-12T06:16:01;18.60;;;12.30;;
7683;SDS011;3884;48.616;12.872;2022-09-12T06:18:29;17.30;;;11.90;;
7683;SDS011;3884;48.616;12.872;2022-09-12T06:20:56;24.30;;;13.20;;
7683;SDS011;3884;48.616;12.872;2022-09-12T06:23:26;23.23;;;12.63;;
7683;SDS011;3884;48.616;12.872;2022-09-12T06:25:55;22.60;;;12.67;;
7683;SDS011;3884;48.616;12.872;2022-09-12T06:28:21;22.10;;;13.70;;
7683;SDS011;3884;48.616;12.872;2022-09-12T06:30:48;24.70;;;13.83;;
7683;SDS011;3884;48.616;12.872;2022-09-12T06:33:15;24.13;;;14.47;;
7683;SDS011;3884;48.616;12.872;2022-09-12T06:35:43;30.90;;;15.90;;
7683;SDS011;3884;48.616;12.872;2022-09-12T06:38:10;33.20;;;17.23;;
7683;SDS011;3884;48.616;12.872;2022-09-12T06:40:40;29.77;;;18.97;;
7683;SDS011;3884;48.616;12.872;2022-09-12T06:43:10;32.03;;;19.60;;
7683;SDS011;3884;48.616;12.872;2022-09-12T06:45:37;41.47;;;21.63;;
7683;SDS011;3884;48.616;12.872;2022-09-12T06:48:05;32.37;;;22.63;;
7683;SDS011;3884;48.616;12.872;2022-09-12T06:50:31;46.97;;;24.13;;
7683;SDS011;3884;48.616;12.872;2022-09-12T06:52:58;26.17;;;20.53;;
7683;SDS011;3884;48.616;12.872;2022-09-12T06:55:25;33.20;;;21.30;;
7683;SDS011;3884;48.616;12.872;2022-09-12T06:57:53;30.13;;;21.17;;
7683;SDS011;3884;48.616;12.872;2022-09-12T07:00:21;33.53;;;21.17;;
7683;SDS011;3884;48.616;12.872;2022-09-12T07:02:52;25.37;;;20.63;;
7683;SDS011;3884;48.616;12.872;2022-09-12T07:05:19;25.97;;;20.53;;
7683;SDS011;3884;48.616;12.872;2022-09-12T07:07:46;32.17;;;21.03;;
7683;SDS011;3884;48.616;12.872;2022-09-12T07:10:13;24.73;;;19.80;;
7683;SDS011;3884;48.616;12.872;2022-09-12T07:12:40;22.90;;;18.80;;
7683;SDS011;3884;48.616;12.872;2022-09-12T07:15:07;21.67;;;18.40;;
7683;SDS011;3884;48.616;12.872;2022-09-12T07:17:36;33.33;;;19.63;;
7683;SDS011;3884;48.616;12.872;2022-09-12T07:20:03;20.80;;;17.97;;
7683;SDS011;3884;48.616;12.872;2022-09-12T07:22:31;19.63;;;16.97;;
7683;SDS011;3884;48.616;12.872;2022-09-12T07:24:57;19.63;;;16.70;;
7683;SDS011;3884;48.616;12.872;2022-09-12T07:27:24;28.40;;;19.43;;
7683;SDS011;3884;48.616;12.872;2022-09-12T07:29:52;28.20;;;18.87;;
7683;SDS011;3884;48.616;12.872;2022-09-12T07:32:19;20.73;;;18.13;;
7683;SDS011;3884;48.616;12.872;2022-09-12T07:34:48;19.03;;;16.83;;
7683;SDS011;3884;48.616;12.872;2022-09-12T07:37:16;20.57;;;16.70;;
7683;SDS011;3884;48.616;12.872;2022-09-12T07:39:43;19.73;;;17.63;;
7683;SDS011;3884;48.616;12.872;2022-09-12T07:42:10;18.27;;;16.30;;
7683;SDS011;3884;48.616;12.872;2022-09-12T07:44:37;19.90;;;17.80;;
7683;SDS011;3884;48.616;12.872;2022-09-12T07:47:04;27.63;;;19.27;;
7683;SDS011;3884;48.616;12.872;2022-09-12T07:49:31;25.60;;;19.80;;
7683;SDS011;3884;48.616;12.872;2022-09-12T07:52:00;26.50;;;21.57;;
7683;SDS011;3884;48.616;12.872;2022-09-12T07:54:27;24.87;;;20.93;;
7683;SDS011;3884;48.616;12.872;2022-09-12T07:56:54;25.50;;;19.73;;
7683;SDS011;3884;48.616;12.872;2022-09-12T07:59:20;21.33;;;19.03;;
7683;SDS011;3884;48.616;12.872;2022-09-12T08:01:47;22.20;;;19.07;;
7683;SDS011;3884;48.616;12.872;2022-09-12T08:04:14;23.73;;;19.47;;
7683;SDS011;3884;48.616;12.872;2022-09-12T08:06:41;24.50;;;19.77;;
7683;SDS011;3884;48.616;12.872;2022-09-12T08:09:09;21.27;;;19.00;;
7683;SDS011;3884;48.616;12.872;2022-09-12T08:11:39;19.70;;;17.60;;
7683;SDS011;3884;48.616;12.872;2022-09-12T08:14:06;19.50;;;17.50;;
7683;SDS011;3884;48.616;12.872;2022-09-12T08:16:33;20.57;;;18.37;;
7683;SDS011;3884;48.616;12.872;2022-09-12T08:19:00;21.07;;;18.87;;
7683;SDS011;3884;48.616;12.872;2022-09-12T08:21:29;20.07;;;17.97;;
7683;SDS011;3884;48.616;12.872;2022-09-12T08:23:58;22.23;;;19.47;;
7683;SDS011;3884;48.616;12.872;2022-09-12T08:26:27;20.60;;;18.50;;
7683;SDS011;3884;48.616;12.872;2022-09-12T08:28:54;19.87;;;17.73;;
7683;SDS011;3884;48.616;12.872;2022-09-12T08:31:22;19.63;;;17.53;;
7683;SDS011;3884;48.616;12.872;2022-09-12T08:33:50;20.27;;;18.17;;
7683;SDS011;3884;48.616;12.872;2022-09-12T08:36:20;20.63;;;18.43;;
7683;SDS011;3884;48.616;12.872;2022-09-12T08:38:49;23.13;;;18.87;;
7683;SDS011;3884;48.616;12.872;2022-09-12T08:41:22;19.70;;;17.67;;
7683;SDS011;3884;48.616;12.872;2022-09-12T08:44:10;20.87;;;18.70;;
7683;SDS011;3884;48.616;12.872;2022-09-12T08:46:56;20.17;;;18.03;;
7683;SDS011;3884;48.616;12.872;2022-09-12T08:49:36;19.87;;;17.77;;
7683;SDS011;3884;48.616;12.872;2022-09-12T08:52:10;19.03;;;17.03;;
7683;SDS011;3884;48.616;12.872;2022-09-12T08:54:41;19.97;;;17.87;;
7683;SDS011;3884;48.616;12.872;2022-09-12T08:57:09;21.87;;;18.70;;
7683;SDS011;3884;48.616;12.872;2022-09-12T08:59:39;21.10;;;18.50;;
7683;SDS011;3884;48.616;12.872;2022-09-12T09:02:14;24.47;;;20.90;;
7683;SDS011;3884;48.616;12.872;2022-09-12T09:04:55;21.37;;;19.07;;
7683;SDS011;3884;48.616;12.872;2022-09-12T09:07:46;20.93;;;18.80;;
7683;SDS011;3884;48.616;12.872;2022-09-12T09:10:28;22.63;;;20.33;;
7683;SDS011;3884;48.616;12.872;2022-09-12T09:13:00;21.83;;;19.63;;
7683;SDS011;3884;48.616;12.872;2022-09-12T09:15:37;22.33;;;20.03;;
7683;SDS011;3884;48.616;12.872;2022-09-12T09:18:09;24.40;;;21.80;;
7683;SDS011;3884;48.616;12.872;2022-09-12T09:20:41;22.70;;;19.67;;
7683;SDS011;3884;48.616;12.872;2022-09-12T09:23:13;21.33;;;19.13;;
7683;SDS011;3884;48.616;12.872;2022-09-12T09:25:48;21.50;;;18.67;;
7683;SDS011;3884;48.616;12.872;2022-09-12T09:28:21;21.03;;;18.73;;
7683;SDS011;3884;48.616;12.872;2022-09-12T09:30:51;21.27;;;19.13;;
7683;SDS011;3884;48.616;12.872;2022-09-12T09:33:20;22.57;;;19.13;;
7683;SDS011;3884;48.616;12.872;2022-09-12T09:35:50;19.63;;;17.63;;
7683;SDS011;3884;48.616;12.872;2022-09-12T09:38:22;20.53;;;18.33;;
7683;SDS011;3884;48.616;12.872;2022-09-12T09:40:56;21.10;;;18.97;;
7683;SDS011;3884;48.616;12.872;2022-09-12T09:43:32;20.13;;;18.23;;
7683;SDS011;3884;48.616;12.872;2022-09-12T09:46:00;20.00;;;17.90;;
7683;SDS011;3884;48.616;12.872;2022-09-12T09:48:29;21.53;;;19.33;;
7683;SDS011;3884;48.616;12.872;2022-09-12T09:50:57;21.43;;;18.27;;
7683;SDS011;3884;48.616;12.872;2022-09-12T09:53:28;19.87;;;17.77;;
7683;SDS011;3884;48.616;12.872;2022-09-12T09:56:02;18.87;;;17.03;;
7683;SDS011;3884;48.616;12.872;2022-09-12T09:58:34;20.87;;;18.60;;
7683;SDS011;3884;48.616;12.872;2022-09-12T10:01:03;17.63;;;16.03;;
7683;SDS011;3884;48.616;12.872;2022-09-12T10:03:32;19.30;;;17.23;;
7683;SDS011;3884;48.616;12.872;2022-09-12T10:06:05;19.87;;;17.97;;
7683;SDS011;3884;48.616;12.872;2022-09-12T10:08:34;19.60;;;17.60;;
7683;SDS011;3884;48.616;12.872;2022-09-12T10:11:03;18.90;;;17.03;;
7683;SDS011;3884;48.616;12.872;2022-09-12T10:13:34;18.40;;;16.50;;
7683;SDS011;3884;48.616;12.872;2022-09-12T10:16:05;19.97;;;17.97;;
7683;SDS011;3884;48.616;12.872;2022-09-12T10:18:43;20.67;;;18.70;;
7683;SDS011;3884;48.616;12.872;2022-09-12T10:21:14;20.40;;;18.30;;
7683;SDS011;3884;48.616;12.872;2022-09-12T10:23:45;18.77;;;16.87;;
7683;SDS011;3884;48.616;12.872;2022-09-12T10:26:13;19.23;;;17.33;;
7683;SDS011;3884;48.616;12.872;2022-09-12T10:28:43;18.67;;;16.87;;
7683;SDS011;3884;48.616;12.872;2022-09-12T10:31:16;19.47;;;17.60;;
7683;SDS011;3884;48.616;12.872;2022-09-12T10:33:53;16.87;;;15.17;;
7683;SDS011;3884;48.616;12.872;2022-09-12T10:36:22;17.67;;;15.97;;
7683;SDS011;3884;48.616;12.872;2022-09-12T10:38:50;17.13;;;15.43;;
7683;SDS011;3884;48.616;12.872;2022-09-12T10:41:20;16.70;;;15.00;;
7683;SDS011;3884;48.616;12.872;2022-09-12T10:43:48;17.03;;;15.33;;
7683;SDS011;3884;48.616;12.872;2022-09-12T10:46:21;16.33;;;14.83;;
7683;SDS011;3884;48.616;12.872;2022-09-12T10:49:18;16.70;;;15.07;;
7683;SDS011;3884;48.616;12.872;2022-09-12T10:51:51;12.10;;;11.00;;
7683;SDS011;3884;48.616;12.872;2022-09-12T10:54:20;11.57;;;10.57;;
7683;SDS011;3884;48.616;12.872;2022-09-12T10:56:55;15.43;;;13.80;;
7683;SDS011;3884;48.616;12.872;2022-09-12T10:59:57;13.93;;;12.63;;
7683;SDS011;3884;48.616;12.872;2022-09-12T11:02:38;13.80;;;12.50;;
7683;SDS011;3884;48.616;12.872;2022-09-12T11:05:13;10.50;;;9.50;;
7683;SDS011;3884;48.616;12.872;2022-09-12T11:07:48;12.10;;;10.93;;
7683;SDS011;3884;48.616;12.872;2022-09-12T11:10:29;10.70;;;9.70;;
7683;SDS011;3884;48.616;12.872;2022-09-12T11:13:09;10.30;;;9.37;;
7683;SDS011;3884;48.616;12.872;2022-09-12T11:15:51;8.73;;;7.83;;
7683;SDS011;3884;48.616;12.872;2022-09-12T11:18:38;9.03;;;7.70;;
7683;SDS011;3884;48.616;12.872;2022-09-12T11:21:30;8.63;;;7.83;;
7683;SDS011;3884;48.616;12.872;2022-09-12T11:27:09;7.70;;;6.90;;
7683;SDS011;3884;48.616;12.872;2022-09-12T11:29:47;7.53;;;6.87;;
7683;SDS011;3884;48.616;12.872;2022-09-12T11:35:26;6.17;;;5.63;;
7683;SDS011;3884;48.616;12.872;2022-09-12T11:41:00;5.20;;;4.80;;
7683;SDS011;3884;48.616;12.872;2022-09-12T11:43:34;6.00;;;5.47;;
7683;SDS011;3884;48.616;12.872;2022-09-12T11:46:05;5.73;;;4.90;;
7683;SDS011;3884;48.616;12.872;2022-09-12T11:48:41;5.70;;;5.20;;
7683;SDS011;3884;48.616;12.872;2022-09-12T11:51:16;6.30;;;5.67;;
7683;SDS011;3884;48.616;12.872;2022-09-12T11:53:46;5.50;;;4.83;;
7683;SDS011;3884;48.616;12.872;2022-09-12T11:56:23;5.60;;;5.10;;
7683;SDS011;3884;48.616;12.872;2022-09-12T11:58:51;5.67;;;5.17;;
7683;SDS011;3884;48.616;12.872;2022-09-12T12:01:25;6.23;;;5.67;;
7683;SDS011;3884;48.616;12.872;2022-09-12T12:03:57;5.30;;;4.90;;
7683;SDS011;3884;48.616;12.872;2022-09-12T12:06:30;5.07;;;4.67;;
7683;SDS011;3884;48.616;12.872;2022-09-12T12:08:59;4.80;;;4.30;;
7683;SDS011;3884;48.616;12.872;2022-09-12T12:11:27;4.40;;;4.00;;
7683;SDS011;3884;48.616;12.872;2022-09-12T12:13:57;5.33;;;4.90;;
7683;SDS011;3884;48.616;12.872;2022-09-12T12:16:27;5.13;;;4.37;;
7683;SDS011;3884;48.616;12.872;2022-09-12T12:18:56;4.53;;;4.13;;
7683;SDS011;3884;48.616;12.872;2022-09-12T12:24:14;4.83;;;4.43;;
7683;SDS011;3884;48.616;12.872;2022-09-12T12:26:53;5.37;;;4.87;;
7683;SDS011;3884;48.616;12.872;2022-09-12T12:37:58;4.83;;;3.97;;
7683;SDS011;3884;48.616;12.872;2022-09-12T12:40:26;4.47;;;4.07;;
7683;SDS011;3884;48.616;12.872;2022-09-12T12:42:59;4.70;;;4.30;;
7683;SDS011;3884;48.616;12.872;2022-09-12T12:45:45;5.20;;;4.80;;
7683;SDS011;3884;48.616;12.872;2022-09-12T12:48:47;4.80;;;4.40;;
7683;SDS011;3884;48.616;12.872;2022-09-12T12:51:36;4.27;;;3.97;;
7683;SDS011;3884;48.616;12.872;2022-09-12T12:54:46;4.80;;;4.40;;
7683;SDS011;3884;48.616;12.872;2022-09-12T12:57:17;4.37;;;4.03;;
7683;SDS011;3884;48.616;12.872;2022-09-12T13:00:04;3.93;;;3.63;;
7683;SDS011;3884;48.616;12.872;2022-09-12T13:02:34;4.33;;;3.73;;
7683;SDS011;3884;48.616;12.872;2022-09-12T13:05:04;3.50;;;3.27;;
7683;SDS011;3884;48.616;12.872;2022-09-12T13:07:41;3.87;;;3.57;;
7683;SDS011;3884;48.616;12.872;2022-09-12T13:10:20;3.63;;;3.33;;
7683;SDS011;3884;48.616;12.872;2022-09-12T13:12:48;3.80;;;3.50;;
7683;SDS011;3884;48.616;12.872;2022-09-12T13:18:14;3.43;;;3.13;;
7683;SDS011;3884;48.616;12.872;2022-09-12T13:20:46;3.93;;;3.57;;
7683;SDS011;3884;48.616;12.872;2022-09-12T13:23:20;3.50;;;3.20;;
7683;SDS011;3884;48.616;12.872;2022-09-12T13:25:53;3.67;;;3.37;;
7683;SDS011;3884;48.616;12.872;2022-09-12T13:28:22;3.50;;;3.20;;
7683;SDS011;3884;48.616;12.872;2022-09-12T13:30:53;3.37;;;3.13;;
7683;SDS011;3884;48.616;12.872;2022-09-12T13:33:28;3.47;;;3.17;;
7683;SDS011;3884;48.616;12.872;2022-09-12T13:42:01;3.87;;;3.43;;
7683;SDS011;3884;48.616;12.872;2022-09-12T13:44:54;2.80;;;2.60;;
7683;SDS011;3884;48.616;12.872;2022-09-12T13:47:27;2.87;;;2.67;;
7683;SDS011;3884;48.616;12.872;2022-09-12T13:49:57;4.00;;;3.20;;
7683;SDS011;3884;48.616;12.872;2022-09-12T13:52:26;3.00;;;2.70;;
7683;SDS011;3884;48.616;12.872;2022-09-12T13:54:56;3.33;;;2.63;;
7683;SDS011;3884;48.616;12.872;2022-09-12T13:57:30;2.90;;;2.70;;
7683;SDS011;3884;48.616;12.872;2022-09-12T13:59:58;4.13;;;2.90;;
7683;SDS011;3884;48.616;12.872;2022-09-12T14:02:33;3.33;;;2.80;;
7683;SDS011;3884;48.616;12.872;2022-09-12T14:05:10;3.40;;;3.10;;
7683;SDS011;3884;48.616;12.872;2022-09-12T14:07:39;4.23;;;2.80;;
7683;SDS011;3884;48.616;12.872;2022-09-12T14:10:20;3.37;;;3.07;;
7683;SDS011;3884;48.616;12.872;2022-09-12T14:12:52;3.37;;;2.90;;
7683;SDS011;3884;48.616;12.872;2022-09-12T14:15:22;3.10;;;2.80;;
7683;SDS011;3884;48.616;12.872;2022-09-12T14:17:52;3.17;;;2.93;;
7683;SDS011;3884;48.616;12.872;2022-09-12T14:20:23;3.17;;;2.80;;
7683;SDS011;3884;48.616;12.872;2022-09-12T14:22:53;3.20;;;3.00;;
7683;SDS011;3884;48.616;12.872;2022-09-12T14:25:21;2.80;;;2.60;;
7683;SDS011;3884;48.616;12.872;2022-09-12T14:27:50;3.07;;;2.77;;
7683;SDS011;3884;48.616;12.872;2022-09-12T14:30:21;3.17;;;2.90;;
7683;SDS011;3884;48.616;12.872;2022-09-12T14:33:03;4.33;;;3.00;;
7683;SDS011;3884;48.616;12.872;2022-09-12T14:35:42;2.83;;;2.63;;
7683;SDS011;3884;48.616;12.872;2022-09-12T14:38:12;3.43;;;2.93;;
7683;SDS011;3884;48.616;12.872;2022-09-12T14:40:47;3.10;;;2.87;;
7683;SDS011;3884;48.616;12.872;2022-09-12T14:43:18;3.27;;;3.07;;
7683;SDS011;3884;48.616;12.872;2022-09-12T14:45:53;3.03;;;2.83;;
7683;SDS011;3884;48.616;12.872;2022-09-12T14:48:23;3.20;;;2.70;;
7683;SDS011;3884;48.616;12.872;2022-09-12T14:50:51;2.90;;;2.60;;
7683;SDS011;3884;48.616;12.872;2022-09-12T14:53:20;3.00;;;2.80;;
7683;SDS011;3884;48.616;12.872;2022-09-12T14:55:51;3.73;;;2.70;;
7683;SDS011;3884;48.616;12.872;2022-09-12T14:58:24;2.60;;;2.40;;
7683;SDS011;3884;48.616;12.872;2022-09-12T15:00:56;3.17;;;2.87;;
7683;SDS011;3884;48.616;12.872;2022-09-12T15:03:26;2.70;;;2.50;;
7683;SDS011;3884;48.616;12.872;2022-09-12T15:05:56;3.40;;;2.43;;
7683;SDS011;3884;48.616;12.872;2022-09-12T15:08:24;2.87;;;2.67;;
7683;SDS011;3884;48.616;12.872;2022-09-12T15:10:51;2.77;;;2.57;;
7683;SDS011;3884;48.616;12.872;2022-09-12T15:13:20;5.50;;;2.70;;
7683;SDS011;3884;48.616;12.872;2022-09-12T15:15:51;2.73;;;2.53;;
7683;SDS011;3884;48.616;12.872;2022-09-12T15:18:20;2.80;;;2.60;;
7683;SDS011;3884;48.616;12.872;2022-09-12T15:20:49;2.97;;;2.77;;
7683;SDS011;3884;48.616;12.872;2022-09-12T15:23:18;3.00;;;2.80;;
7683;SDS011;3884;48.616;12.872;2022-09-12T15:25:48;3.10;;;2.90;;
7683;SDS011;3884;48.616;12.872;2022-09-12T15:28:17;2.90;;;2.70;;
7683;SDS011;3884;48.616;12.872;2022-09-12T15:30:45;2.70;;;2.50;;
7683;SDS011;3884;48.616;12.872;2022-09-12T15:33:16;2.80;;;2.60;;
7683;SDS011;3884;48.616;12.872;2022-09-12T15:35:46;2.60;;;2.40;;
7683;SDS011;3884;48.616;12.872;2022-09-12T15:38:14;3.10;;;2.80;;
7683;SDS011;3884;48.616;12.872;2022-09-12T15:40:40;2.60;;;2.40;;
7683;SDS011;3884;48.616;12.872;2022-09-12T15:43:08;2.80;;;2.60;;
7683;SDS011;3884;48.616;12.872;2022-09-12T15:45:37;3.03;;;2.60;;
7683;SDS011;3884;48.616;12.872;2022-09-12T15:48:04;2.90;;;2.70;;
7683;SDS011;3884;48.616;12.872;2022-09-12T15:50:32;2.87;;;2.67;;